createdAt,value
2017-05-31T10:47:33.375Z,7.18
2017-05-31T10:50:02.275Z,6.78
2017-05-31T10:52:31.264Z,6.02
2017-05-31T10:55:00.300Z,6.88
2017-05-31T10:57:29.143Z,5.80
2017-05-31T10:59:58.040Z,5.72
2017-05-31T11:02:27.046Z,5.98
2017-05-31T11:04:55.896Z,5.56
2017-05-31T11:07:24.727Z,6.10
2017-05-31T11:09:53.686Z,6.12
2017-05-31T11:12:22.694Z,6.06
2017-05-31T11:14:51.671Z,6.54
2017-05-31T11:17:20.520Z,6.70
2017-05-31T11:19:48.602Z,6.20
2017-05-31T11:22:17.655Z,5.68
2017-05-31T11:24:46.668Z,5.58
2017-05-31T11:27:15.522Z,7.00
2017-05-31T11:29:44.351Z,6.16
2017-05-31T11:32:13.346Z,6.78
2017-05-31T11:34:42.166Z,6.40
2017-05-31T11:37:11.127Z,7.94
2017-05-31T11:39:40.062Z,6.62
2017-05-31T11:42:09.103Z,7.56
2017-05-31T11:44:37.975Z,7.24
2017-05-31T11:47:06.970Z,6.40
2017-05-31T11:49:36.094Z,6.98
2017-05-31T11:57:07.155Z,5.60
2017-05-31T11:59:35.975Z,6.18
2017-05-31T12:02:04.878Z,5.94
2017-05-31T12:04:33.859Z,5.42
2017-05-31T12:07:02.821Z,6.14
2017-05-31T12:09:31.818Z,5.88
2017-05-31T12:12:00.921Z,6.30
2017-05-31T12:14:30.024Z,6.06
2017-05-31T12:16:57.458Z,6.66
2017-05-31T12:19:24.289Z,6.48
2017-05-31T12:21:51.076Z,5.90
2017-05-31T12:24:17.887Z,5.76
2017-05-31T12:26:44.699Z,6.08
2017-05-31T12:29:11.601Z,5.12
2017-05-31T12:31:38.498Z,6.04
2017-05-31T12:34:05.427Z,5.52
2017-05-31T12:36:32.814Z,5.20
2017-05-31T12:38:59.850Z,5.98
2017-05-31T12:41:26.842Z,5.52
2017-05-31T12:43:53.786Z,5.38
2017-05-31T12:46:20.607Z,5.50
2017-05-31T12:48:46.655Z,5.58
2017-05-31T12:51:13.442Z,5.84
2017-05-31T12:53:40.234Z,5.24
2017-05-31T12:56:06.341Z,5.58
2017-05-31T12:58:33.122Z,5.00
2017-05-31T13:01:00.130Z,5.08
2017-05-31T13:03:26.177Z,5.46
2017-05-31T13:05:52.958Z,5.60
2017-05-31T13:08:19.750Z,5.70
2017-05-31T13:10:45.797Z,4.88
2017-05-31T13:13:12.607Z,5.32
2017-05-31T13:15:39.390Z,5.72
2017-05-31T13:18:06.182Z,5.28
2017-05-31T13:20:32.986Z,5.96
2017-05-31T13:22:59.895Z,5.18
2017-05-31T13:25:25.935Z,5.78
2017-05-31T13:27:52.722Z,4.72
2017-05-31T13:30:19.519Z,5.88
2017-05-31T13:32:45.578Z,5.70
2017-05-31T13:35:12.371Z,5.32
2017-05-31T13:37:39.159Z,5.30
2017-05-31T13:40:05.959Z,5.40
2017-05-31T13:42:32.027Z,5.04
2017-05-31T13:44:58.834Z,5.10
2017-05-31T13:47:25.627Z,5.46
2017-05-31T13:49:52.419Z,4.36
2017-05-31T13:52:18.477Z,5.66
2017-05-31T13:54:45.267Z,5.18
2017-05-31T13:57:12.078Z,4.86
2017-05-31T13:59:38.870Z,4.68
2017-05-31T14:02:04.906Z,5.46
2017-05-31T14:04:31.702Z,4.88
2017-05-31T14:06:58.505Z,5.32
2017-05-31T14:09:24.565Z,5.46
2017-05-31T14:11:51.360Z,4.78
2017-05-31T14:14:18.162Z,5.56
2017-05-31T14:16:44.958Z,5.08
2017-05-31T14:19:42.265Z,5.28
2017-05-31T14:22:24.033Z,5.04
2017-05-31T14:24:50.825Z,6.02
2017-05-31T14:27:16.875Z,4.92
2017-05-31T14:29:43.662Z,5.46
2017-05-31T14:32:10.448Z,5.88
2017-05-31T14:34:37.254Z,5.68
2017-05-31T14:37:04.039Z,5.10
2017-05-31T14:39:30.850Z,5.68
2017-05-31T14:41:57.642Z,5.20
2017-05-31T14:44:24.446Z,5.64
2017-05-31T14:46:51.246Z,5.22
2017-05-31T14:49:18.050Z,5.52
2017-05-31T14:51:44.842Z,5.66
2017-05-31T14:54:11.638Z,5.76
2017-05-31T14:56:38.466Z,4.38
2017-05-31T14:59:05.275Z,5.36
2017-05-31T15:01:32.078Z,5.56
2017-05-31T15:03:59.036Z,6.10
2017-05-31T15:06:25.866Z,5.84
2017-05-31T15:08:52.677Z,6.12
2017-05-31T15:11:19.470Z,6.28
2017-05-31T15:13:46.268Z,5.10
2017-05-31T15:16:13.058Z,5.12
2017-05-31T15:18:39.854Z,5.12
2017-05-31T15:21:06.692Z,6.32
2017-05-31T15:23:33.489Z,5.28
2017-05-31T15:26:00.324Z,5.74
2017-05-31T15:28:27.126Z,5.20
2017-05-31T15:30:53.934Z,5.22
2017-05-31T15:33:20.747Z,4.74
2017-05-31T15:35:46.795Z,8.98
2017-05-31T15:38:13.641Z,5.48
2017-05-31T15:40:40.479Z,5.24
2017-05-31T15:43:07.283Z,5.44
2017-05-31T15:45:34.094Z,5.86
2017-05-31T15:48:15.875Z,5.42
2017-05-31T15:50:42.687Z,5.76
2017-05-31T15:53:09.509Z,5.30
2017-05-31T15:55:36.307Z,4.82
2017-05-31T15:58:03.122Z,4.84
2017-05-31T16:00:29.915Z,5.22
2017-05-31T16:02:56.732Z,5.02
2017-05-31T16:05:22.787Z,5.90
2017-05-31T16:07:49.586Z,5.34
2017-05-31T16:10:16.394Z,4.90
2017-05-31T16:12:43.183Z,4.80
2017-05-31T16:15:10.002Z,4.76
2017-05-31T16:17:36.071Z,5.16
2017-05-31T16:20:02.875Z,4.32
2017-05-31T16:22:29.691Z,4.86
2017-05-31T16:24:56.506Z,5.46
2017-05-31T16:27:23.340Z,5.50
2017-05-31T16:29:50.134Z,4.50
2017-05-31T16:32:16.950Z,5.62
2017-05-31T16:34:43.738Z,5.20
2017-05-31T16:37:10.556Z,5.80
2017-05-31T16:39:37.359Z,5.36
2017-05-31T16:42:04.162Z,5.04
2017-05-31T16:44:30.984Z,5.34
2017-05-31T16:46:57.802Z,5.32
2017-05-31T16:49:24.603Z,5.10
2017-05-31T16:51:50.654Z,5.46
2017-05-31T16:54:17.473Z,6.12
2017-05-31T16:56:44.266Z,5.62
2017-05-31T16:59:11.058Z,6.00
2017-05-31T17:01:52.863Z,5.62
2017-05-31T17:04:19.646Z,6.18
2017-05-31T17:06:46.447Z,5.82
2017-05-31T17:09:13.234Z,5.68
2017-05-31T17:11:40.106Z,6.14
2017-05-31T17:14:06.960Z,5.98
2017-05-31T17:16:33.782Z,6.00
2017-05-31T17:19:00.574Z,6.12
2017-05-31T17:21:26.796Z,6.10
2017-05-31T17:23:53.629Z,6.46
2017-05-31T17:26:20.435Z,6.68
2017-05-31T17:28:47.231Z,6.38
2017-05-31T17:31:14.039Z,5.96
2017-05-31T17:33:40.841Z,6.72
2017-05-31T17:36:07.658Z,6.42
2017-05-31T17:38:34.459Z,6.22
2017-05-31T17:41:01.239Z,7.30
2017-05-31T17:43:27.290Z,6.84
2017-05-31T17:45:54.096Z,7.72
2017-05-31T17:48:20.147Z,7.44
2017-05-31T17:50:46.941Z,6.78
2017-05-31T17:53:13.747Z,7.42
2017-05-31T17:55:40.566Z,7.32
2017-05-31T17:58:07.362Z,7.28
2017-05-31T18:00:34.168Z,6.45
2017-05-31T18:03:00.227Z,7.16
2017-05-31T18:05:57.826Z,6.02
2017-05-31T18:08:24.627Z,7.82
2017-05-31T18:10:51.427Z,6.34
2017-05-31T18:13:18.245Z,7.18
2017-05-31T18:15:45.046Z,6.70
2017-05-31T18:18:11.858Z,7.80
2017-05-31T18:20:37.915Z,7.24
2017-05-31T18:23:05.146Z,8.02
2017-05-31T18:25:31.963Z,6.80
2017-05-31T18:27:58.762Z,7.06
2017-05-31T18:30:25.562Z,7.68
2017-05-31T18:32:52.366Z,7.58
2017-05-31T18:35:19.178Z,6.47
2017-05-31T18:38:00.954Z,6.82
2017-05-31T18:40:27.756Z,6.36
2017-05-31T18:42:54.546Z,6.30
2017-05-31T18:45:36.350Z,5.90
2017-05-31T18:48:02.410Z,5.76
2017-05-31T18:50:29.227Z,5.78
2017-05-31T18:52:56.027Z,5.60
2017-05-31T18:55:22.827Z,5.52
2017-05-31T18:57:49.666Z,6.58
2017-05-31T19:00:16.475Z,5.76
2017-05-31T19:02:42.726Z,6.68
2017-05-31T19:05:09.529Z,6.10
2017-05-31T19:07:36.350Z,5.30
2017-05-31T19:10:03.166Z,6.62
2017-05-31T19:12:29.959Z,5.40
2017-05-31T19:14:56.774Z,5.76
2017-05-31T19:17:23.571Z,5.14
2017-05-31T19:19:50.378Z,5.46
2017-05-31T19:22:17.174Z,5.18
2017-05-31T19:24:43.262Z,5.06
2017-05-31T19:27:10.054Z,5.04
2017-05-31T19:29:36.895Z,4.82
2017-05-31T19:32:03.690Z,5.50
2017-05-31T19:34:30.490Z,4.94
2017-05-31T19:36:57.295Z,5.02
2017-05-31T19:39:23.342Z,5.42
2017-05-31T19:41:50.175Z,4.82
2017-05-31T19:44:16.970Z,5.16
2017-05-31T19:46:43.782Z,5.08
2017-05-31T19:49:09.850Z,5.46
2017-05-31T19:51:36.666Z,5.04
2017-05-31T19:54:03.477Z,4.52
2017-05-31T19:56:30.554Z,5.58
2017-05-31T19:58:57.357Z,5.28
2017-05-31T20:01:24.142Z,5.50
2017-05-31T20:03:50.945Z,4.68
2017-05-31T20:06:17.746Z,5.40
2017-05-31T20:08:44.534Z,4.92
2017-05-31T20:11:11.334Z,5.02
2017-05-31T20:13:38.118Z,5.48
2017-05-31T20:16:04.179Z,5.60
2017-05-31T20:18:30.999Z,4.52
2017-05-31T20:20:57.809Z,5.06
2017-05-31T20:23:24.617Z,5.56
2017-05-31T20:25:51.443Z,5.18
2017-05-31T20:28:17.503Z,4.86
2017-05-31T20:30:44.294Z,5.02
2017-05-31T20:33:11.081Z,4.30
2017-05-31T20:35:37.876Z,4.66
2017-05-31T20:38:03.938Z,5.32
2017-05-31T20:40:30.734Z,4.74
2017-05-31T20:42:57.550Z,5.12
2017-05-31T20:45:24.358Z,4.90
2017-05-31T20:47:50.417Z,4.78
2017-05-31T20:50:17.215Z,4.62
2017-05-31T20:52:44.003Z,5.62
2017-05-31T20:55:10.806Z,4.30
2017-05-31T20:57:37.605Z,5.32
2017-05-31T21:00:04.436Z,5.14
2017-05-31T21:02:31.268Z,4.80
2017-05-31T21:04:58.055Z,4.52
2017-05-31T21:07:24.841Z,5.14
2017-05-31T21:09:51.642Z,5.18
2017-05-31T21:12:18.443Z,5.24
2017-05-31T21:14:45.269Z,4.44
2017-05-31T21:17:12.079Z,4.80
2017-05-31T21:19:38.143Z,5.70
2017-05-31T21:22:04.970Z,4.74
2017-05-31T21:24:31.782Z,5.24
2017-05-31T21:26:58.571Z,4.44
2017-05-31T21:29:24.630Z,4.52
2017-05-31T21:31:51.430Z,4.70
2017-05-31T21:34:18.331Z,4.52
2017-05-31T21:36:45.130Z,4.90
2017-05-31T21:39:11.926Z,5.02
2017-05-31T21:41:38.720Z,4.38
2017-05-31T21:44:04.775Z,4.72
2017-05-31T21:46:31.578Z,5.38
2017-05-31T21:48:58.362Z,4.88
2017-05-31T21:51:25.175Z,4.58
2017-05-31T21:53:51.221Z,4.66
2017-05-31T21:56:18.031Z,5.10
2017-05-31T21:58:44.846Z,5.00
2017-05-31T22:01:11.650Z,5.10
2017-05-31T22:03:38.442Z,5.24
2017-05-31T22:06:04.518Z,5.54
2017-05-31T22:08:31.334Z,4.62
2017-05-31T22:10:58.146Z,5.10
2017-05-31T22:13:24.975Z,5.14
2017-05-31T22:15:51.781Z,4.98
2017-05-31T22:18:18.595Z,5.42
2017-05-31T22:20:45.382Z,4.50
2017-05-31T22:23:12.188Z,4.46
2017-05-31T22:25:38.970Z,4.56
2017-05-31T22:28:05.763Z,4.82
2017-05-31T22:30:32.569Z,4.82
2017-05-31T22:32:59.358Z,5.70
2017-05-31T22:35:25.426Z,5.35
2017-05-31T22:37:52.218Z,5.32
2017-05-31T22:40:19.063Z,4.74
2017-05-31T22:42:45.853Z,5.58
2017-05-31T22:45:12.682Z,4.40
2017-05-31T22:47:39.474Z,4.26
2017-05-31T22:50:06.270Z,5.90
2017-05-31T22:52:33.066Z,5.00
2017-05-31T22:55:14.819Z,5.64
2017-05-31T22:57:41.623Z,5.32
2017-05-31T23:00:07.663Z,5.40
2017-05-31T23:02:49.405Z,5.36
2017-05-31T23:05:16.192Z,5.30
2017-05-31T23:07:42.999Z,5.26
2017-05-31T23:10:09.795Z,4.90
2017-05-31T23:12:36.591Z,5.50
2017-05-31T23:15:03.375Z,4.80
2017-05-31T23:17:29.422Z,5.40
2017-05-31T23:19:56.218Z,5.02
2017-05-31T23:22:23.002Z,5.40
2017-05-31T23:24:49.802Z,4.92
2017-05-31T23:27:16.570Z,5.98
2017-05-31T23:29:43.364Z,5.00
2017-05-31T23:32:10.154Z,4.80
2017-05-31T23:34:36.974Z,4.90
2017-05-31T23:37:03.775Z,5.02
2017-05-31T23:39:30.588Z,4.90
2017-05-31T23:41:56.650Z,5.72
2017-05-31T23:44:38.402Z,5.00
2017-05-31T23:47:04.460Z,5.26
2017-05-31T23:49:31.275Z,4.78
2017-05-31T23:51:58.054Z,5.24
2017-05-31T23:54:24.846Z,5.08
2017-05-31T23:57:06.602Z,5.06
2017-05-31T23:59:33.402Z,4.86
